Terminal Aerodrome Forecast
Issued by NWS

Current Version | Previous Version | Text Only | Print | Product List | Glossary Off
Versions: 1 2 3 4 5 6 7 8 9 10 11 12 13 14 15 16 17 18 19 20 21 22 23

000
FTUS41 KILN 300700 AAA
TAFLCK
TAF AMD
KLCK 300705Z 3007/0106 22004KT 2SM BR BKN004
      TEMPO 3007/3011 1/2SM FG VV002
     FM301400 23007KT P6SM BKN015
     FM301600 24010KT P6SM VCSH BKN035
     FM301800 24012G20KT P6SM VCTS BKN040CB
      TEMPO 3018/3022 3SM TSRA BR OVC020CB
     FM010000 25006KT P6SM SCT050 SCT100=

USA.gov is the U.S. government's official web portal to all federal, state and local government web resources and services.